Rechercher aéroport 
image banner adimage banner ad
image banner ad

VISM - Shimla

Situé à Shimla, India

ICAO - VISM, IATA - SLV

Données fournies par Airmate  

Information générale

Coordonnées: N31°4'54" E77°4'4"
Élévation : 5072 feet MSL.
 
Évalué:
Voir évaluations: [VIEW]


Voir autres Aéroports à Himachal Pradesh

Données opérationnelles

Accessible au public
Heure actuelle UTC:
Heure actuelle locale:
Météo
METAR: VISM 210130Z 00000KT 6000 NSC 14/09 Q1021
TAF: TAF VISM 202300Z 2100/2109 00000KT 2000 BR FEW100 BECMG 2105/2107 32005KT 5000 HZ SCT035
Voir NOTAMs / SUP AIP / TFR affectant cet aéroport [VIEW]
Fréquences de communication: [VIEW]

Pistes:

Identifiant RWYQFULongueur (ft)Largeur (ft)SurfaceLDA (ft)
14146°381698ASP
32326°381698

Coordonnées de l'aéroport

Adresse: Shimla India

Vue satellite de VISM